createdAt,value
2018-06-25T00:02:25.340Z,9.83
2018-06-25T00:04:53.009Z,6.17
2018-06-25T00:07:21.630Z,8.03
2018-06-25T00:09:49.300Z,7.10
2018-06-25T00:12:16.931Z,8.60
2018-06-25T00:14:44.502Z,5.80
2018-06-25T00:17:12.169Z,6.33
2018-06-25T00:19:39.770Z,10.97
2018-06-25T00:22:07.893Z,8.83
2018-06-25T00:24:36.616Z,9.40
2018-06-25T00:27:04.272Z,10.30
2018-06-25T00:29:31.892Z,8.47
2018-06-25T00:31:59.501Z,7.97
2018-06-25T00:34:27.087Z,7.13
2018-06-25T00:36:54.672Z,8.20
2018-06-25T00:39:22.780Z,8.97
2018-06-25T00:41:50.391Z,7.90
2018-06-25T00:44:18.004Z,7.70
2018-06-25T00:46:45.619Z,7.73
2018-06-25T00:49:13.213Z,8.03
2018-06-25T00:51:40.828Z,7.90
2018-06-25T00:54:09.138Z,10.33
2018-06-25T00:56:36.745Z,10.10
2018-06-25T00:59:15.726Z,9.30
2018-06-25T01:01:43.304Z,8.20
2018-06-25T01:04:10.902Z,11.57
2018-06-25T01:06:38.531Z,8.07
2018-06-25T01:09:08.353Z,8.67
2018-06-25T01:11:35.957Z,8.90
2018-06-25T01:14:03.772Z,9.30
2018-06-25T01:16:32.448Z,11.10
2018-06-25T01:19:00.042Z,12.23
2018-06-25T01:21:28.340Z,11.27
2018-06-25T01:23:56.661Z,10.43
2018-06-25T01:26:24.429Z,10.17
2018-06-25T01:28:52.113Z,10.53
2018-06-25T01:31:20.309Z,11.90
2018-06-25T01:33:47.945Z,11.87
2018-06-25T01:36:15.536Z,11.53
2018-06-25T01:38:43.147Z,11.20
2018-06-25T01:41:10.712Z,13.67
2018-06-25T01:43:38.329Z,11.73
2018-06-25T01:46:05.952Z,10.23
2018-06-25T01:48:33.541Z,14.77
2018-06-25T01:51:01.186Z,11.53
2018-06-25T01:53:28.832Z,11.37
2018-06-25T01:55:56.436Z,11.47
2018-06-25T01:58:24.033Z,11.47
2018-06-25T02:00:51.633Z,15.03
2018-06-25T02:03:19.245Z,12.93
2018-06-25T02:05:46.843Z,15.13
2018-06-25T02:08:14.431Z,15.67
2018-06-25T02:10:42.528Z,13.97
2018-06-25T02:13:10.148Z,12.43
2018-06-25T02:15:37.732Z,14.23
2018-06-25T02:18:05.473Z,13.87
2018-06-25T02:20:33.504Z,14.37
2018-06-25T02:23:01.071Z,15.83
2018-06-25T02:25:28.664Z,13.80
2018-06-25T02:27:56.256Z,12.97
2018-06-25T02:30:25.880Z,13.73
2018-06-25T02:32:53.498Z,18.90
2018-06-25T02:35:22.128Z,13.17
2018-06-25T02:37:49.820Z,15.27
2018-06-25T02:40:17.452Z,13.70
2018-06-25T02:42:45.064Z,16.70
2018-06-25T02:45:12.777Z,12.97
2018-06-25T02:47:40.378Z,12.13
2018-06-25T02:50:07.977Z,18.23
2018-06-25T02:52:35.601Z,14.13
2018-06-25T02:55:03.248Z,18.20
2018-06-25T02:57:31.199Z,17.77
2018-06-25T02:59:58.992Z,13.63
2018-06-25T03:02:27.353Z,14.20
2018-06-25T03:04:55.013Z,14.73
2018-06-25T03:07:22.618Z,16.03
2018-06-25T03:09:50.239Z,16.40
2018-06-25T03:12:17.809Z,15.03
2018-06-25T03:14:45.724Z,13.83
2018-06-25T03:17:13.362Z,16.47
2018-06-25T03:19:40.977Z,20.87
2018-06-25T03:22:08.605Z,22.70
2018-06-25T03:24:36.208Z,18.03
2018-06-25T03:27:03.809Z,18.83
2018-06-25T03:29:31.433Z,18.77
2018-06-25T03:31:59.057Z,17.37
2018-06-25T03:34:26.668Z,18.20
2018-06-25T03:36:54.277Z,17.27
2018-06-25T03:39:21.800Z,16.77
2018-06-25T03:41:49.472Z,21.73
2018-06-25T03:44:17.063Z,22.00
2018-06-25T03:46:45.459Z,19.80
2018-06-25T03:49:13.664Z,24.83
2018-06-25T03:51:41.522Z,22.43
2018-06-25T03:54:09.108Z,19.80
2018-06-25T03:56:36.715Z,21.30
2018-06-25T03:59:04.476Z,21.97
2018-06-25T04:01:32.112Z,19.80
2018-06-25T04:04:00.695Z,15.13
2018-06-25T04:06:28.303Z,18.33
2018-06-25T04:08:55.954Z,11.70
2018-06-25T04:11:24.543Z,16.77
2018-06-25T04:13:52.613Z,12.83
2018-06-25T04:16:20.184Z,10.67
2018-06-25T04:18:52.589Z,13.63
2018-06-25T04:21:20.700Z,14.70
2018-06-25T04:23:48.907Z,11.43
2018-06-25T04:26:16.377Z,13.47
2018-06-25T04:28:44.653Z,12.30
2018-06-25T04:31:12.236Z,11.57
2018-06-25T04:33:39.847Z,11.47
2018-06-25T04:36:07.425Z,13.47
2018-06-25T04:38:35.016Z,13.30
2018-06-25T04:41:02.649Z,12.57
2018-06-25T04:43:30.307Z,12.50
2018-06-25T04:45:58.443Z,15.17
2018-06-25T04:48:26.057Z,16.53
2018-06-25T04:50:53.688Z,11.77
2018-06-25T04:53:21.540Z,12.87
2018-06-25T04:55:49.128Z,11.90
2018-06-25T04:58:16.724Z,9.57
2018-06-25T05:00:44.315Z,9.90
2018-06-25T05:03:11.896Z,8.97
2018-06-25T05:05:39.480Z,9.50
2018-06-25T05:08:07.076Z,9.47
2018-06-25T05:10:34.685Z,10.23
2018-06-25T05:13:02.288Z,9.90
2018-06-25T05:15:29.876Z,10.00
2018-06-25T05:17:57.469Z,10.63
2018-06-25T05:20:25.092Z,10.67
2018-06-25T05:22:52.601Z,10.60
2018-06-25T05:25:20.236Z,8.67
2018-06-25T05:27:47.858Z,9.73
2018-06-25T05:30:16.076Z,10.63
2018-06-25T05:32:43.661Z,9.93
2018-06-25T05:35:11.280Z,9.50
2018-06-25T05:37:39.081Z,11.97
2018-06-25T05:40:06.737Z,8.80
2018-06-25T05:42:34.326Z,10.40
2018-06-25T05:45:01.945Z,11.00
2018-06-25T05:47:29.552Z,10.50
2018-06-25T05:49:58.148Z,11.47
2018-06-25T05:52:25.770Z,9.80
2018-06-25T05:54:53.345Z,10.57
2018-06-25T05:57:20.952Z,10.93
2018-06-25T05:59:48.531Z,11.73
2018-06-25T06:02:16.600Z,11.67
2018-06-25T06:04:44.212Z,13.17
2018-06-25T06:07:12.057Z,14.43
2018-06-25T06:09:39.832Z,12.13
2018-06-25T06:12:07.444Z,11.50
2018-06-25T06:14:37.330Z,11.63
2018-06-25T06:17:04.984Z,11.43
2018-06-25T06:19:32.589Z,9.50
2018-06-25T06:22:00.204Z,8.40
2018-06-25T06:24:28.302Z,10.03
2018-06-25T06:26:55.894Z,7.47
2018-06-25T06:29:23.472Z,7.63
2018-06-25T06:31:51.403Z,7.50
2018-06-25T06:34:19.041Z,8.17
2018-06-25T06:36:46.648Z,10.80
2018-06-25T06:39:15.248Z,7.97
2018-06-25T06:41:45.976Z,7.70
2018-06-25T06:44:13.941Z,8.90
2018-06-25T06:46:41.600Z,10.20
2018-06-25T06:49:09.469Z,10.73
2018-06-25T06:51:37.106Z,12.43
2018-06-25T06:54:04.827Z,8.43
2018-06-25T06:56:33.188Z,7.43
2018-06-25T06:59:00.810Z,7.50
2018-06-25T07:01:28.848Z,6.27
2018-06-25T07:03:56.628Z,7.27
2018-06-25T07:06:24.261Z,7.10
2018-06-25T07:08:51.913Z,7.77
2018-06-25T07:11:19.488Z,7.43
2018-06-25T07:13:47.120Z,8.93
2018-06-25T07:16:14.741Z,8.10
2018-06-25T07:18:42.240Z,9.77
2018-06-25T07:21:10.324Z,7.87
2018-06-25T07:23:37.956Z,7.80
2018-06-25T07:26:05.622Z,8.43
2018-06-25T07:28:33.201Z,7.10
2018-06-25T07:31:00.772Z,6.23
2018-06-25T07:33:28.377Z,6.13
2018-06-25T07:35:56.049Z,7.50
2018-06-25T07:38:23.664Z,6.67
2018-06-25T07:40:51.301Z,6.43
2018-06-25T07:43:18.877Z,9.10
2018-06-25T07:45:46.492Z,7.23
2018-06-25T07:48:14.073Z,6.73
2018-06-25T07:50:41.680Z,7.90
2018-06-25T07:53:09.339Z,8.20
2018-06-25T07:55:39.081Z,7.17
2018-06-25T07:58:06.674Z,6.83
2018-06-25T08:00:34.310Z,7.07
2018-06-25T08:03:01.890Z,8.20
2018-06-25T08:05:29.785Z,7.60
2018-06-25T08:07:57.393Z,6.50
2018-06-25T08:10:25.033Z,5.87
2018-06-25T08:12:52.682Z,3.90
2018-06-25T08:15:20.276Z,5.63
2018-06-25T08:17:47.860Z,5.90
2018-06-25T08:20:15.490Z,6.70
2018-06-25T08:22:43.077Z,5.80
2018-06-25T08:25:10.773Z,5.70
2018-06-25T08:27:38.397Z,5.37
2018-06-25T08:30:06.039Z,5.33
2018-06-25T08:32:33.593Z,6.67
2018-06-25T08:35:01.189Z,6.50
2018-06-25T08:37:28.964Z,6.83
2018-06-25T08:39:56.593Z,6.90
2018-06-25T08:42:24.288Z,6.63
2018-06-25T08:44:52.608Z,5.47
2018-06-25T08:47:20.229Z,5.77
2018-06-25T08:49:47.825Z,5.80
2018-06-25T08:52:15.426Z,6.13
2018-06-25T08:54:43.004Z,3.60
2018-06-25T08:57:10.588Z,3.47
2018-06-25T08:59:38.159Z,3.90
2018-06-25T09:02:05.803Z,3.80
2018-06-25T09:04:33.397Z,5.47
2018-06-25T09:07:01.389Z,4.03
2018-06-25T09:09:28.992Z,4.70
2018-06-25T09:11:56.612Z,5.03
2018-06-25T09:14:24.173Z,5.10
2018-06-25T09:16:51.802Z,5.33
2018-06-25T09:19:19.373Z,6.03
2018-06-25T09:21:47.690Z,5.30
2018-06-25T09:24:15.254Z,5.80
2018-06-25T09:26:42.850Z,5.13
2018-06-25T09:29:12.039Z,5.77
2018-06-25T09:31:39.656Z,5.57
2018-06-25T09:35:11.017Z,5.63
2018-06-25T09:37:38.605Z,4.13
2018-06-25T09:40:06.772Z,5.00
2018-06-25T09:42:34.449Z,4.10
2018-06-25T09:45:02.067Z,4.63
2018-06-25T09:47:29.648Z,4.63
2018-06-25T09:49:57.227Z,5.20
2018-06-25T09:52:24.848Z,5.47
2018-06-25T09:54:52.491Z,4.20
2018-06-25T09:57:20.115Z,4.40
2018-06-25T09:59:47.705Z,5.20
2018-06-25T10:02:15.208Z,4.97
2018-06-25T10:04:42.779Z,4.57
2018-06-25T10:07:10.369Z,4.90
2018-06-25T10:09:37.985Z,4.80
2018-06-25T10:12:05.713Z,5.43
2018-06-25T10:14:33.303Z,5.30
2018-06-25T10:17:00.944Z,5.33
2018-06-25T10:19:29.311Z,4.23
2018-06-25T10:21:56.916Z,3.83
2018-06-25T10:24:24.500Z,3.77
2018-06-25T10:26:52.130Z,3.70
2018-06-25T10:29:19.736Z,3.43
2018-06-25T10:31:47.525Z,3.40
2018-06-25T10:34:15.100Z,2.43
2018-06-25T10:36:42.689Z,3.63
2018-06-25T10:39:10.760Z,3.20
2018-06-25T10:41:38.364Z,3.70
2018-06-25T10:44:07.125Z,3.87
2018-06-25T10:46:34.880Z,4.20
2018-06-25T10:49:02.494Z,4.10
2018-06-25T10:51:30.073Z,3.70
2018-06-25T10:53:57.812Z,3.30
2018-06-25T10:56:25.412Z,4.50
2018-06-25T10:58:53.007Z,3.37
2018-06-25T11:01:20.741Z,2.80
2018-06-25T11:03:48.950Z,2.63
2018-06-25T11:06:16.581Z,3.77
2018-06-25T11:08:44.189Z,4.47
2018-06-25T11:11:12.804Z,4.50
2018-06-25T11:13:40.388Z,3.10
2018-06-25T11:16:07.996Z,3.87
2018-06-25T11:21:09.914Z,3.00
2018-06-25T11:23:37.517Z,3.43
2018-06-25T11:26:05.138Z,3.07
2018-06-25T11:28:32.741Z,3.10
2018-06-25T11:31:00.309Z,2.73
2018-06-25T11:33:27.887Z,2.83
2018-06-25T11:35:55.481Z,3.10
2018-06-25T11:38:23.079Z,2.80
2018-06-25T11:40:50.656Z,2.67
2018-06-25T11:43:18.248Z,3.10
2018-06-25T11:45:45.821Z,3.70
2018-06-25T11:48:13.712Z,2.90
2018-06-25T11:50:42.144Z,2.97
2018-06-25T11:53:10.456Z,2.73
2018-06-25T11:55:38.042Z,2.47
2018-06-25T11:58:05.657Z,2.70
2018-06-25T12:00:33.221Z,2.10
2018-06-25T12:03:00.902Z,2.80
2018-06-25T12:05:28.340Z,3.57
2018-06-25T12:07:56.017Z,2.57
2018-06-25T12:10:23.612Z,2.63
2018-06-25T12:12:51.252Z,2.97
2018-06-25T12:15:18.985Z,2.30
2018-06-25T12:17:47.345Z,2.90
2018-06-25T12:20:15.974Z,2.27
2018-06-25T12:22:43.549Z,2.20
2018-06-25T12:25:11.149Z,1.90
2018-06-25T12:27:38.794Z,2.60
2018-06-25T12:30:06.621Z,2.17
2018-06-25T12:32:34.205Z,2.97
2018-06-25T12:35:02.454Z,2.73
2018-06-25T12:37:30.037Z,2.60
2018-06-25T12:39:57.616Z,2.93
2018-06-25T12:42:25.188Z,2.33
2018-06-25T12:44:52.804Z,3.23
2018-06-25T12:47:20.400Z,2.03
2018-06-25T12:49:48.145Z,2.40
2018-06-25T12:52:15.853Z,1.30
2018-06-25T12:54:43.420Z,1.63
2018-06-25T12:57:11.086Z,1.47
2018-06-25T12:59:38.636Z,1.93
2018-06-25T13:02:06.321Z,2.50
2018-06-25T13:04:33.905Z,3.30
2018-06-25T13:07:01.531Z,2.80
2018-06-25T13:09:29.918Z,2.83
2018-06-25T13:11:58.508Z,3.60
2018-06-25T13:14:26.649Z,2.97
2018-06-25T13:16:54.314Z,3.60
2018-06-25T13:19:21.932Z,3.93
2018-06-25T13:21:49.520Z,4.10
2018-06-25T13:24:17.110Z,3.30
2018-06-25T13:26:44.701Z,3.70
2018-06-25T13:29:12.257Z,3.53
2018-06-25T13:31:39.862Z,3.30
2018-06-25T13:34:07.629Z,6.17
2018-06-25T13:36:35.265Z,2.80
2018-06-25T13:39:03.929Z,2.80
2018-06-25T13:41:31.530Z,3.90
2018-06-25T13:43:59.123Z,2.93
2018-06-25T13:46:26.744Z,3.00
2018-06-25T13:48:54.394Z,2.10
2018-06-25T13:51:22.004Z,2.00
2018-06-25T13:53:49.580Z,1.80
2018-06-25T13:56:17.168Z,3.30
2018-06-25T13:58:44.733Z,1.73
2018-06-25T14:01:12.365Z,2.00
2018-06-25T14:03:40.815Z,1.83
2018-06-25T14:06:08.364Z,1.63
2018-06-25T14:08:35.997Z,3.77
2018-06-25T14:11:03.619Z,2.03
2018-06-25T14:13:31.261Z,2.20
2018-06-25T14:15:59.889Z,2.50
2018-06-25T14:18:27.517Z,2.80
2018-06-25T14:20:56.005Z,2.40
2018-06-25T14:23:23.596Z,2.47
2018-06-25T14:25:56.836Z,2.10
2018-06-25T14:28:30.681Z,2.70
2018-06-25T14:31:04.232Z,2.67
2018-06-25T14:33:37.513Z,2.40
2018-06-25T14:36:05.748Z,1.97
2018-06-25T14:38:33.356Z,2.77
2018-06-25T14:41:01.608Z,3.10
2018-06-25T14:43:29.196Z,2.37
2018-06-25T14:45:56.787Z,1.93
2018-06-25T14:48:24.431Z,2.00
2018-06-25T14:50:52.024Z,2.07
2018-06-25T14:53:19.595Z,2.20
2018-06-25T14:55:47.196Z,2.17
2018-06-25T14:58:14.802Z,2.23
2018-06-25T15:00:42.406Z,1.60
2018-06-25T15:03:10.001Z,2.13
2018-06-25T15:05:37.616Z,1.70
2018-06-25T15:08:05.318Z,1.80
2018-06-25T15:10:32.905Z,1.83
2018-06-25T15:13:00.481Z,1.30
2018-06-25T15:15:29.080Z,3.00
2018-06-25T15:17:58.039Z,2.97
2018-06-25T15:20:26.283Z,2.00
2018-06-25T15:22:53.917Z,2.17
2018-06-25T15:25:21.520Z,1.67
2018-06-25T15:27:49.080Z,1.50
2018-06-25T15:30:18.299Z,3.27
2018-06-25T15:32:45.851Z,1.90
2018-06-25T15:35:13.487Z,1.90
2018-06-25T15:37:41.192Z,1.80
2018-06-25T15:40:08.816Z,1.33
2018-06-25T15:42:36.381Z,1.93
2018-06-25T15:45:03.984Z,1.70
2018-06-25T15:47:31.659Z,2.70
2018-06-25T15:49:59.279Z,2.00
2018-06-25T15:52:26.829Z,1.87
2018-06-25T15:54:54.472Z,1.93
2018-06-25T15:57:22.097Z,2.30
2018-06-25T15:59:49.777Z,2.67
2018-06-25T16:02:17.292Z,3.00
2018-06-25T16:04:45.535Z,1.87
2018-06-25T16:07:13.109Z,1.60
2018-06-25T16:09:40.840Z,1.70
2018-06-25T16:12:08.400Z,1.60
2018-06-25T16:14:36.033Z,1.90
2018-06-25T16:17:03.723Z,2.27
2018-06-25T16:19:31.539Z,3.00
2018-06-25T16:21:59.167Z,2.03
2018-06-25T16:24:26.782Z,3.40
2018-06-25T16:26:54.352Z,4.47
2018-06-25T16:29:22.116Z,3.30
2018-06-25T16:31:49.698Z,1.53
2018-06-25T16:34:18.140Z,2.40
2018-06-25T16:36:45.769Z,2.60
2018-06-25T16:39:13.632Z,3.00
2018-06-25T16:41:41.193Z,2.70
2018-06-25T16:44:08.795Z,2.93
2018-06-25T16:46:37.696Z,1.90
2018-06-25T16:49:05.647Z,5.03
2018-06-25T16:51:33.280Z,2.57
2018-06-25T16:54:00.876Z,2.23
2018-06-25T16:56:28.475Z,2.07
2018-06-25T16:58:56.088Z,2.53
2018-06-25T17:01:23.681Z,1.80
2018-06-25T17:03:51.248Z,2.50
2018-06-25T17:06:19.676Z,2.77
2018-06-25T17:08:47.240Z,1.93
2018-06-25T17:11:14.884Z,4.67
2018-06-25T17:13:42.464Z,4.53
2018-06-25T17:16:10.540Z,2.20
2018-06-25T17:18:38.741Z,2.33
2018-06-25T17:21:06.345Z,2.40
2018-06-25T17:23:34.282Z,4.73
2018-06-25T17:26:01.993Z,3.47
2018-06-25T17:28:29.654Z,2.30
2018-06-25T17:30:57.732Z,1.97
2018-06-25T17:33:25.333Z,1.93
2018-06-25T17:35:52.973Z,2.63
2018-06-25T17:38:20.581Z,1.73
2018-06-25T17:40:48.209Z,2.50
2018-06-25T17:43:16.516Z,2.10
2018-06-25T17:45:44.082Z,2.00
2018-06-25T17:48:11.698Z,2.43
2018-06-25T17:50:39.203Z,2.30
2018-06-25T17:53:06.789Z,3.73
2018-06-25T17:55:34.415Z,1.90
2018-06-25T17:58:02.061Z,2.80
2018-06-25T18:00:29.729Z,3.10
2018-06-25T18:02:57.340Z,2.20
2018-06-25T18:05:26.537Z,2.77
2018-06-25T18:07:54.141Z,2.47
2018-06-25T18:10:21.776Z,2.23
2018-06-25T18:12:49.404Z,3.00
2018-06-25T18:15:17.008Z,3.10
2018-06-25T18:17:44.580Z,2.10
2018-06-25T18:20:12.256Z,2.57
2018-06-25T18:22:39.865Z,2.00
2018-06-25T18:25:07.519Z,2.40
2018-06-25T18:27:35.208Z,2.50
2018-06-25T18:30:02.946Z,1.87
2018-06-25T18:32:30.711Z,2.03
2018-06-25T18:34:58.329Z,1.80
2018-06-25T18:37:25.912Z,2.10
2018-06-25T18:39:53.665Z,1.90
2018-06-25T18:42:21.261Z,2.50
2018-06-25T18:44:48.959Z,3.00
2018-06-25T18:47:16.455Z,2.30
2018-06-25T18:49:44.061Z,2.67
2018-06-25T18:52:11.673Z,2.10
2018-06-25T18:54:40.300Z,2.10
2018-06-25T18:57:07.914Z,1.90
2018-06-25T18:59:35.561Z,3.03
2018-06-25T19:02:03.229Z,2.53
2018-06-25T19:04:30.841Z,2.47
2018-06-25T19:06:58.419Z,2.67
2018-06-25T19:09:26.000Z,2.60
2018-06-25T19:11:53.609Z,2.50
2018-06-25T19:14:21.284Z,4.60
2018-06-25T19:16:48.874Z,3.53
2018-06-25T19:19:16.493Z,2.63
2018-06-25T19:21:44.125Z,4.37
2018-06-25T19:24:11.652Z,6.10
2018-06-25T19:26:39.243Z,3.00
2018-06-25T19:29:06.982Z,5.93
2018-06-25T19:31:36.188Z,2.60
2018-06-25T19:34:03.900Z,3.37
2018-06-25T19:36:31.542Z,2.37
2018-06-25T19:38:59.116Z,2.90
2018-06-25T19:41:26.736Z,3.07
2018-06-25T19:43:54.364Z,2.03
2018-06-25T19:46:21.957Z,2.70
2018-06-25T19:48:49.576Z,3.13
2018-06-25T19:51:17.196Z,2.07
2018-06-25T19:53:44.916Z,2.37
2018-06-25T19:56:12.521Z,2.50
2018-06-25T19:58:40.088Z,2.50
2018-06-25T20:01:07.789Z,2.20
2018-06-25T20:03:36.116Z,2.67
2018-06-25T20:06:03.841Z,2.50
2018-06-25T20:08:32.229Z,2.80
2018-06-25T20:10:59.990Z,2.90
2018-06-25T20:13:27.576Z,2.50
2018-06-25T20:15:55.347Z,2.50
2018-06-25T20:18:22.976Z,2.60
2018-06-25T20:20:50.685Z,2.90
2018-06-25T20:23:18.317Z,3.03
2018-06-25T20:25:45.942Z,2.40
2018-06-25T20:28:14.177Z,7.63
2018-06-25T20:30:41.735Z,2.43
2018-06-25T20:33:09.321Z,3.50
2018-06-25T20:35:36.919Z,7.07
2018-06-25T20:38:07.460Z,3.37
2018-06-25T20:40:35.117Z,5.57
2018-06-25T20:43:02.684Z,2.90
2018-06-25T20:45:30.268Z,3.03
2018-06-25T20:47:58.621Z,5.70
2018-06-25T20:50:26.320Z,2.63
2018-06-25T20:52:53.944Z,2.80
2018-06-25T20:55:22.052Z,2.60
2018-06-25T20:57:49.648Z,4.33
2018-06-25T21:00:17.924Z,2.40
2018-06-25T21:02:45.677Z,2.60
2018-06-25T21:05:13.254Z,2.60
2018-06-25T21:07:40.862Z,2.50
2018-06-25T21:10:08.557Z,2.80
2018-06-25T21:12:36.142Z,4.73
2018-06-25T21:15:03.937Z,2.60
2018-06-25T21:17:31.604Z,2.20
2018-06-25T21:19:59.236Z,2.50
2018-06-25T21:22:26.840Z,3.67
2018-06-25T21:24:54.452Z,4.20
2018-06-25T21:27:22.050Z,3.07
2018-06-25T21:29:49.634Z,2.80
2018-06-25T21:32:17.220Z,7.03
2018-06-25T21:34:44.853Z,3.17
2018-06-25T21:37:12.429Z,2.90
2018-06-25T21:39:40.045Z,2.80
2018-06-25T21:42:08.397Z,3.03
2018-06-25T21:44:36.048Z,3.00
2018-06-25T21:47:03.920Z,3.33
2018-06-25T21:49:31.628Z,2.63
2018-06-25T21:51:59.233Z,2.70
2018-06-25T21:54:26.899Z,3.10
2018-06-25T21:56:54.472Z,5.23
2018-06-25T21:59:22.164Z,2.90
2018-06-25T22:01:53.781Z,2.97
2018-06-25T22:04:21.373Z,3.10
2018-06-25T22:06:49.437Z,3.57
2018-06-25T22:09:17.081Z,3.90
2018-06-25T22:11:44.685Z,2.63
2018-06-25T22:14:12.309Z,3.80
2018-06-25T22:16:39.922Z,4.03
2018-06-25T22:19:07.557Z,3.10
2018-06-25T22:21:35.210Z,3.73
2018-06-25T22:24:02.872Z,3.40
2018-06-25T22:26:30.494Z,3.67
2018-06-25T22:28:58.853Z,3.87
2018-06-25T22:31:26.639Z,3.80
2018-06-25T22:33:54.280Z,3.27
2018-06-25T22:36:21.884Z,5.73
2018-06-25T22:38:49.473Z,4.63
2018-06-25T22:41:17.080Z,3.33
2018-06-25T22:43:44.870Z,3.10
2018-06-25T22:46:12.477Z,3.60
2018-06-25T22:48:40.070Z,3.30
2018-06-25T22:51:07.645Z,3.53
2018-06-25T22:53:35.268Z,3.90
2018-06-25T22:56:03.580Z,3.70
2018-06-25T22:58:31.882Z,3.63
2018-06-25T23:00:59.464Z,2.90
2018-06-25T23:03:27.061Z,4.10
2018-06-25T23:05:54.657Z,4.40
2018-06-25T23:08:22.264Z,7.40
2018-06-25T23:10:49.816Z,3.70
2018-06-25T23:13:17.412Z,3.90
2018-06-25T23:15:45.702Z,4.33
2018-06-25T23:18:14.316Z,4.67
2018-06-25T23:20:41.978Z,4.30
2018-06-25T23:23:09.564Z,3.87
2018-06-25T23:25:37.172Z,4.30
2018-06-25T23:28:05.784Z,5.00
2018-06-25T23:30:33.353Z,6.07
2018-06-25T23:33:00.961Z,4.00
2018-06-25T23:35:28.597Z,5.30
2018-06-25T23:37:56.225Z,4.50
2018-06-25T23:40:24.525Z,4.93
2018-06-25T23:42:52.132Z,3.90
2018-06-25T23:45:19.733Z,4.33
2018-06-25T23:47:47.439Z,4.30
2018-06-25T23:50:15.036Z,4.20
2018-06-25T23:52:42.879Z,4.10
2018-06-25T23:55:10.464Z,5.00
2018-06-25T23:57:38.052Z,8.27
